sensor_id;sensor_type;location;lat;lon;timestamp;P1;durP1;ratioP1;P2;durP2;ratioP2
38463;SDS011;24243;51.956;5.902;2023-04-25T00:02:17;1.50;;;0.35;;
38463;SDS011;24243;51.956;5.902;2023-04-25T00:04:44;1.83;;;0.52;;
38463;SDS011;24243;51.956;5.902;2023-04-25T00:07:11;1.27;;;0.32;;
38463;SDS011;24243;51.956;5.902;2023-04-25T00:09:37;1.02;;;0.30;;
38463;SDS011;24243;51.956;5.902;2023-04-25T00:12:03;0.77;;;0.35;;
38463;SDS011;24243;51.956;5.902;2023-04-25T00:14:29;1.27;;;0.32;;
38463;SDS011;24243;51.956;5.902;2023-04-25T00:16:55;1.48;;;0.65;;
38463;SDS011;24243;51.956;5.902;2023-04-25T00:19:21;1.23;;;0.45;;
38463;SDS011;24243;51.956;5.902;2023-04-25T00:21:46;1.23;;;0.40;;
38463;SDS011;24243;51.956;5.902;2023-04-25T00:24:12;0.75;;;0.28;;
38463;SDS011;24243;51.956;5.902;2023-04-25T00:26:38;0.80;;;0.40;;
38463;SDS011;24243;51.956;5.902;2023-04-25T00:29:04;1.13;;;0.47;;
38463;SDS011;24243;51.956;5.902;2023-04-25T00:31:30;0.95;;;0.30;;
38463;SDS011;24243;51.956;5.902;2023-04-25T00:33:55;1.55;;;0.40;;
38463;SDS011;24243;51.956;5.902;2023-04-25T00:36:21;1.42;;;0.32;;
38463;SDS011;24243;51.956;5.902;2023-04-25T00:38:47;1.92;;;0.70;;
38463;SDS011;24243;51.956;5.902;2023-04-25T00:41:13;1.55;;;0.38;;
38463;SDS011;24243;51.956;5.902;2023-04-25T00:43:38;1.50;;;0.40;;
38463;SDS011;24243;51.956;5.902;2023-04-25T00:46:05;1.23;;;0.35;;
38463;SDS011;24243;51.956;5.902;2023-04-25T00:48:31;0.60;;;0.30;;
38463;SDS011;24243;51.956;5.902;2023-04-25T00:50:57;3.53;;;0.50;;
38463;SDS011;24243;51.956;5.902;2023-04-25T00:53:24;0.93;;;0.40;;
38463;SDS011;24243;51.956;5.902;2023-04-25T00:55:51;0.95;;;0.50;;
38463;SDS011;24243;51.956;5.902;2023-04-25T00:58:18;1.35;;;0.50;;
38463;SDS011;24243;51.956;5.902;2023-04-25T01:00:45;0.85;;;0.38;;
38463;SDS011;24243;51.956;5.902;2023-04-25T01:03:12;1.15;;;0.40;;
38463;SDS011;24243;51.956;5.902;2023-04-25T01:05:40;0.80;;;0.30;;
38463;SDS011;24243;51.956;5.902;2023-04-25T01:08:06;1.15;;;0.32;;
38463;SDS011;24243;51.956;5.902;2023-04-25T01:10:32;1.35;;;0.43;;
38463;SDS011;24243;51.956;5.902;2023-04-25T01:12:58;2.05;;;0.47;;
38463;SDS011;24243;51.956;5.902;2023-04-25T01:15:24;1.38;;;0.30;;
38463;SDS011;24243;51.956;5.902;2023-04-25T01:17:49;1.13;;;0.40;;
38463;SDS011;24243;51.956;5.902;2023-04-25T01:20:15;1.70;;;0.40;;
38463;SDS011;24243;51.956;5.902;2023-04-25T01:22:42;0.90;;;0.30;;
38463;SDS011;24243;51.956;5.902;2023-04-25T01:25:08;1.13;;;0.50;;
38463;SDS011;24243;51.956;5.902;2023-04-25T01:27:36;0.55;;;0.20;;
38463;SDS011;24243;51.956;5.902;2023-04-25T01:30:02;0.73;;;0.40;;
38463;SDS011;24243;51.956;5.902;2023-04-25T01:32:29;0.70;;;0.40;;
38463;SDS011;24243;51.956;5.902;2023-04-25T01:35:07;0.65;;;0.30;;
38463;SDS011;24243;51.956;5.902;2023-04-25T01:37:39;1.48;;;0.50;;
38463;SDS011;24243;51.956;5.902;2023-04-25T01:40:06;1.02;;;0.63;;
38463;SDS011;24243;51.956;5.902;2023-04-25T01:42:34;1.80;;;0.30;;
38463;SDS011;24243;51.956;5.902;2023-04-25T01:45:00;1.70;;;0.47;;
38463;SDS011;24243;51.956;5.902;2023-04-25T01:47:27;2.28;;;0.50;;
38463;SDS011;24243;51.956;5.902;2023-04-25T01:49:52;1.02;;;0.32;;
38463;SDS011;24243;51.956;5.902;2023-04-25T01:52:18;0.80;;;0.30;;
38463;SDS011;24243;51.956;5.902;2023-04-25T01:54:44;0.95;;;0.40;;
38463;SDS011;24243;51.956;5.902;2023-04-25T01:57:10;1.35;;;0.32;;
38463;SDS011;24243;51.956;5.902;2023-04-25T01:59:36;0.65;;;0.35;;
38463;SDS011;24243;51.956;5.902;2023-04-25T02:02:02;2.15;;;0.47;;
38463;SDS011;24243;51.956;5.902;2023-04-25T02:04:29;1.15;;;0.30;;
38463;SDS011;24243;51.956;5.902;2023-04-25T02:06:55;1.48;;;0.43;;
38463;SDS011;24243;51.956;5.902;2023-04-25T02:09:21;1.05;;;0.40;;
38463;SDS011;24243;51.956;5.902;2023-04-25T02:11:47;1.48;;;0.50;;
38463;SDS011;24243;51.956;5.902;2023-04-25T02:14:13;0.85;;;0.30;;
38463;SDS011;24243;51.956;5.902;2023-04-25T02:16:38;1.55;;;0.40;;
38463;SDS011;24243;51.956;5.902;2023-04-25T02:19:05;0.73;;;0.30;;
38463;SDS011;24243;51.956;5.902;2023-04-25T02:21:31;1.70;;;0.50;;
38463;SDS011;24243;51.956;5.902;2023-04-25T02:23:57;0.85;;;0.30;;
38463;SDS011;24243;51.956;5.902;2023-04-25T02:26:23;1.13;;;0.50;;
38463;SDS011;24243;51.956;5.902;2023-04-25T02:28:49;0.70;;;0.40;;
38463;SDS011;24243;51.956;5.902;2023-04-25T02:31:15;1.08;;;0.45;;
38463;SDS011;24243;51.956;5.902;2023-04-25T02:33:41;1.08;;;0.30;;
38463;SDS011;24243;51.956;5.902;2023-04-25T02:36:07;1.00;;;0.40;;
38463;SDS011;24243;51.956;5.902;2023-04-25T02:38:33;1.10;;;0.40;;
38463;SDS011;24243;51.956;5.902;2023-04-25T02:40:59;0.90;;;0.40;;
38463;SDS011;24243;51.956;5.902;2023-04-25T02:43:25;1.13;;;0.32;;
38463;SDS011;24243;51.956;5.902;2023-04-25T02:45:51;0.85;;;0.38;;
38463;SDS011;24243;51.956;5.902;2023-04-25T02:48:16;1.48;;;0.50;;
38463;SDS011;24243;51.956;5.902;2023-04-25T02:50:42;2.67;;;0.52;;
38463;SDS011;24243;51.956;5.902;2023-04-25T02:53:08;1.42;;;0.40;;
38463;SDS011;24243;51.956;5.902;2023-04-25T02:55:34;1.80;;;0.47;;
38463;SDS011;24243;51.956;5.902;2023-04-25T02:57:59;1.90;;;0.50;;
38463;SDS011;24243;51.956;5.902;2023-04-25T03:00:25;1.67;;;0.47;;
38463;SDS011;24243;51.956;5.902;2023-04-25T03:02:51;0.63;;;0.32;;
38463;SDS011;24243;51.956;5.902;2023-04-25T03:05:17;0.77;;;0.40;;
38463;SDS011;24243;51.956;5.902;2023-04-25T03:07:43;2.92;;;0.88;;
38463;SDS011;24243;51.956;5.902;2023-04-25T03:10:10;1.00;;;0.40;;
38463;SDS011;24243;51.956;5.902;2023-04-25T03:12:35;1.05;;;0.28;;
38463;SDS011;24243;51.956;5.902;2023-04-25T03:15:02;1.00;;;0.38;;
38463;SDS011;24243;51.956;5.902;2023-04-25T03:17:28;1.75;;;0.40;;
38463;SDS011;24243;51.956;5.902;2023-04-25T03:19:53;1.30;;;0.30;;
38463;SDS011;24243;51.956;5.902;2023-04-25T03:22:20;0.60;;;0.30;;
38463;SDS011;24243;51.956;5.902;2023-04-25T03:24:46;2.55;;;0.40;;
38463;SDS011;24243;51.956;5.902;2023-04-25T03:27:12;1.23;;;0.40;;
38463;SDS011;24243;51.956;5.902;2023-04-25T03:29:38;1.33;;;0.35;;
38463;SDS011;24243;51.956;5.902;2023-04-25T03:32:03;1.42;;;0.30;;
38463;SDS011;24243;51.956;5.902;2023-04-25T03:34:29;1.52;;;0.50;;
38463;SDS011;24243;51.956;5.902;2023-04-25T03:36:55;1.10;;;0.40;;
38463;SDS011;24243;51.956;5.902;2023-04-25T03:39:21;1.02;;;0.35;;
38463;SDS011;24243;51.956;5.902;2023-04-25T03:41:47;2.10;;;0.40;;
38463;SDS011;24243;51.956;5.902;2023-04-25T03:44:13;1.83;;;0.60;;
38463;SDS011;24243;51.956;5.902;2023-04-25T03:46:39;2.13;;;0.70;;
38463;SDS011;24243;51.956;5.902;2023-04-25T03:49:05;1.77;;;0.50;;
38463;SDS011;24243;51.956;5.902;2023-04-25T03:51:31;1.23;;;0.50;;
38463;SDS011;24243;51.956;5.902;2023-04-25T03:53:56;1.08;;;0.40;;
38463;SDS011;24243;51.956;5.902;2023-04-25T03:56:22;1.38;;;0.52;;
38463;SDS011;24243;51.956;5.902;2023-04-25T03:58:48;0.80;;;0.40;;
38463;SDS011;24243;51.956;5.902;2023-04-25T04:01:13;1.73;;;0.52;;
38463;SDS011;24243;51.956;5.902;2023-04-25T04:03:39;1.05;;;0.40;;
38463;SDS011;24243;51.956;5.902;2023-04-25T04:06:05;2.05;;;0.55;;
38463;SDS011;24243;51.956;5.902;2023-04-25T04:08:32;2.45;;;0.57;;
38463;SDS011;24243;51.956;5.902;2023-04-25T04:10:58;2.33;;;0.50;;
38463;SDS011;24243;51.956;5.902;2023-04-25T04:13:27;0.82;;;0.30;;
38463;SDS011;24243;51.956;5.902;2023-04-25T04:15:54;2.25;;;0.50;;
38463;SDS011;24243;51.956;5.902;2023-04-25T04:18:20;1.38;;;0.50;;
38463;SDS011;24243;51.956;5.902;2023-04-25T04:20:46;0.85;;;0.45;;
38463;SDS011;24243;51.956;5.902;2023-04-25T04:23:12;1.40;;;0.50;;
38463;SDS011;24243;51.956;5.902;2023-04-25T04:25:38;1.13;;;0.40;;
38463;SDS011;24243;51.956;5.902;2023-04-25T04:28:05;1.30;;;0.60;;
38463;SDS011;24243;51.956;5.902;2023-04-25T04:30:31;1.40;;;0.50;;
38463;SDS011;24243;51.956;5.902;2023-04-25T04:32:58;2.35;;;0.40;;
38463;SDS011;24243;51.956;5.902;2023-04-25T04:35:25;0.80;;;0.40;;
38463;SDS011;24243;51.956;5.902;2023-04-25T04:37:51;1.55;;;0.50;;
38463;SDS011;24243;51.956;5.902;2023-04-25T04:40:17;2.03;;;0.50;;
38463;SDS011;24243;51.956;5.902;2023-04-25T04:42:43;1.23;;;0.43;;
38463;SDS011;24243;51.956;5.902;2023-04-25T04:45:13;1.50;;;0.43;;
38463;SDS011;24243;51.956;5.902;2023-04-25T04:47:39;0.98;;;0.35;;
38463;SDS011;24243;51.956;5.902;2023-04-25T04:50:08;1.90;;;0.50;;
38463;SDS011;24243;51.956;5.902;2023-04-25T04:52:35;1.00;;;0.40;;
38463;SDS011;24243;51.956;5.902;2023-04-25T04:55:02;1.05;;;0.32;;
38463;SDS011;24243;51.956;5.902;2023-04-25T04:57:29;2.33;;;0.57;;
38463;SDS011;24243;51.956;5.902;2023-04-25T04:59:54;1.55;;;0.52;;
38463;SDS011;24243;51.956;5.902;2023-04-25T05:02:20;1.48;;;0.43;;
38463;SDS011;24243;51.956;5.902;2023-04-25T05:04:46;1.30;;;0.45;;
38463;SDS011;24243;51.956;5.902;2023-04-25T05:07:12;1.65;;;0.52;;
38463;SDS011;24243;51.956;5.902;2023-04-25T05:09:38;1.92;;;0.50;;
38463;SDS011;24243;51.956;5.902;2023-04-25T05:12:04;2.22;;;0.45;;
38463;SDS011;24243;51.956;5.902;2023-04-25T05:14:30;1.25;;;0.50;;
38463;SDS011;24243;51.956;5.902;2023-04-25T05:16:55;1.67;;;0.60;;
38463;SDS011;24243;51.956;5.902;2023-04-25T05:19:21;3.08;;;0.50;;
38463;SDS011;24243;51.956;5.902;2023-04-25T05:21:47;1.02;;;0.57;;
38463;SDS011;24243;51.956;5.902;2023-04-25T05:24:12;1.45;;;0.50;;
38463;SDS011;24243;51.956;5.902;2023-04-25T05:26:38;1.65;;;0.43;;
38463;SDS011;24243;51.956;5.902;2023-04-25T05:29:04;1.42;;;0.50;;
38463;SDS011;24243;51.956;5.902;2023-04-25T05:31:30;2.20;;;0.60;;
38463;SDS011;24243;51.956;5.902;2023-04-25T05:33:56;1.27;;;0.43;;
38463;SDS011;24243;51.956;5.902;2023-04-25T05:36:22;1.90;;;0.45;;
38463;SDS011;24243;51.956;5.902;2023-04-25T05:38:48;0.85;;;0.40;;
38463;SDS011;24243;51.956;5.902;2023-04-25T05:41:14;1.20;;;0.30;;
38463;SDS011;24243;51.956;5.902;2023-04-25T05:43:40;1.40;;;0.40;;
38463;SDS011;24243;51.956;5.902;2023-04-25T05:46:10;1.80;;;0.60;;
38463;SDS011;24243;51.956;5.902;2023-04-25T05:48:37;1.80;;;0.30;;
38463;SDS011;24243;51.956;5.902;2023-04-25T05:51:03;1.83;;;0.68;;
38463;SDS011;24243;51.956;5.902;2023-04-25T05:53:28;0.88;;;0.30;;
38463;SDS011;24243;51.956;5.902;2023-04-25T05:55:54;1.38;;;0.50;;
38463;SDS011;24243;51.956;5.902;2023-04-25T05:58:20;1.08;;;0.35;;
38463;SDS011;24243;51.956;5.902;2023-04-25T06:00:45;1.20;;;0.50;;
38463;SDS011;24243;51.956;5.902;2023-04-25T06:03:11;1.13;;;0.50;;
38463;SDS011;24243;51.956;5.902;2023-04-25T06:05:41;2.03;;;0.50;;
38463;SDS011;24243;51.956;5.902;2023-04-25T06:08:07;1.00;;;0.45;;
38463;SDS011;24243;51.956;5.902;2023-04-25T06:10:33;2.30;;;0.50;;
38463;SDS011;24243;51.956;5.902;2023-04-25T06:12:59;2.05;;;0.40;;
38463;SDS011;24243;51.956;5.902;2023-04-25T06:15:24;1.60;;;0.45;;
38463;SDS011;24243;51.956;5.902;2023-04-25T06:17:50;1.48;;;0.43;;
38463;SDS011;24243;51.956;5.902;2023-04-25T06:20:16;0.73;;;0.40;;
38463;SDS011;24243;51.956;5.902;2023-04-25T06:22:42;1.63;;;0.70;;
38463;SDS011;24243;51.956;5.902;2023-04-25T06:25:08;1.25;;;0.45;;
38463;SDS011;24243;51.956;5.902;2023-04-25T06:27:33;1.83;;;0.63;;
38463;SDS011;24243;51.956;5.902;2023-04-25T06:29:59;0.95;;;0.50;;
38463;SDS011;24243;51.956;5.902;2023-04-25T06:32:25;2.20;;;0.90;;
38463;SDS011;24243;51.956;5.902;2023-04-25T06:34:52;2.42;;;0.50;;
38463;SDS011;24243;51.956;5.902;2023-04-25T06:37:19;1.17;;;0.38;;
38463;SDS011;24243;51.956;5.902;2023-04-25T06:39:45;1.60;;;0.35;;
38463;SDS011;24243;51.956;5.902;2023-04-25T06:42:10;1.08;;;0.47;;
38463;SDS011;24243;51.956;5.902;2023-04-25T06:44:36;1.40;;;0.52;;
38463;SDS011;24243;51.956;5.902;2023-04-25T06:47:02;1.15;;;0.45;;
38463;SDS011;24243;51.956;5.902;2023-04-25T06:49:28;1.30;;;0.57;;
38463;SDS011;24243;51.956;5.902;2023-04-25T06:51:53;2.80;;;0.65;;
38463;SDS011;24243;51.956;5.902;2023-04-25T06:54:19;1.63;;;0.40;;
38463;SDS011;24243;51.956;5.902;2023-04-25T06:56:45;1.27;;;0.60;;
38463;SDS011;24243;51.956;5.902;2023-04-25T06:59:11;1.45;;;0.50;;
38463;SDS011;24243;51.956;5.902;2023-04-25T07:01:37;2.58;;;1.08;;
38463;SDS011;24243;51.956;5.902;2023-04-25T07:04:02;1.77;;;0.50;;
38463;SDS011;24243;51.956;5.902;2023-04-25T07:06:28;1.67;;;0.50;;
38463;SDS011;24243;51.956;5.902;2023-04-25T07:08:54;0.95;;;0.45;;
38463;SDS011;24243;51.956;5.902;2023-04-25T07:11:20;2.67;;;0.43;;
38463;SDS011;24243;51.956;5.902;2023-04-25T07:13:46;1.60;;;0.50;;
38463;SDS011;24243;51.956;5.902;2023-04-25T07:16:12;1.50;;;0.77;;
38463;SDS011;24243;51.956;5.902;2023-04-25T07:18:37;1.90;;;0.73;;
38463;SDS011;24243;51.956;5.902;2023-04-25T07:21:03;1.58;;;0.50;;
38463;SDS011;24243;51.956;5.902;2023-04-25T07:23:29;1.88;;;0.40;;
38463;SDS011;24243;51.956;5.902;2023-04-25T07:25:55;1.83;;;0.47;;
38463;SDS011;24243;51.956;5.902;2023-04-25T07:28:21;2.03;;;0.50;;
38463;SDS011;24243;51.956;5.902;2023-04-25T07:30:46;2.47;;;0.57;;
38463;SDS011;24243;51.956;5.902;2023-04-25T07:33:12;2.38;;;0.60;;
38463;SDS011;24243;51.956;5.902;2023-04-25T07:35:38;1.33;;;0.40;;
38463;SDS011;24243;51.956;5.902;2023-04-25T07:38:04;1.25;;;0.43;;
38463;SDS011;24243;51.956;5.902;2023-04-25T07:40:31;1.00;;;0.40;;
38463;SDS011;24243;51.956;5.902;2023-04-25T07:42:57;2.78;;;0.60;;
38463;SDS011;24243;51.956;5.902;2023-04-25T07:45:23;1.00;;;0.50;;
38463;SDS011;24243;51.956;5.902;2023-04-25T07:47:49;1.13;;;0.50;;
38463;SDS011;24243;51.956;5.902;2023-04-25T07:50:15;1.05;;;0.35;;
38463;SDS011;24243;51.956;5.902;2023-04-25T07:52:40;1.08;;;0.32;;
38463;SDS011;24243;51.956;5.902;2023-04-25T07:55:06;1.27;;;0.50;;
38463;SDS011;24243;51.956;5.902;2023-04-25T07:57:32;1.08;;;0.35;;
38463;SDS011;24243;51.956;5.902;2023-04-25T07:59:58;1.73;;;0.63;;
38463;SDS011;24243;51.956;5.902;2023-04-25T08:02:23;0.63;;;0.40;;
38463;SDS011;24243;51.956;5.902;2023-04-25T08:04:53;2.25;;;0.50;;
38463;SDS011;24243;51.956;5.902;2023-04-25T08:07:18;1.20;;;0.40;;
38463;SDS011;24243;51.956;5.902;2023-04-25T08:09:44;2.60;;;0.50;;
38463;SDS011;24243;51.956;5.902;2023-04-25T08:12:10;1.15;;;0.50;;
38463;SDS011;24243;51.956;5.902;2023-04-25T08:14:36;0.95;;;0.55;;
38463;SDS011;24243;51.956;5.902;2023-04-25T08:17:02;2.65;;;0.45;;
38463;SDS011;24243;51.956;5.902;2023-04-25T08:19:29;1.48;;;0.60;;
38463;SDS011;24243;51.956;5.902;2023-04-25T08:21:55;1.25;;;0.30;;
38463;SDS011;24243;51.956;5.902;2023-04-25T08:24:22;1.70;;;0.40;;
38463;SDS011;24243;51.956;5.902;2023-04-25T08:26:48;1.67;;;0.55;;
38463;SDS011;24243;51.956;5.902;2023-04-25T08:29:14;2.72;;;0.50;;
38463;SDS011;24243;51.956;5.902;2023-04-25T08:31:40;1.52;;;0.52;;
38463;SDS011;24243;51.956;5.902;2023-04-25T08:34:05;2.42;;;0.60;;
38463;SDS011;24243;51.956;5.902;2023-04-25T08:36:31;1.00;;;0.30;;
38463;SDS011;24243;51.956;5.902;2023-04-25T08:38:58;2.42;;;0.40;;
38463;SDS011;24243;51.956;5.902;2023-04-25T08:41:23;1.60;;;0.70;;
38463;SDS011;24243;51.956;5.902;2023-04-25T08:43:50;1.20;;;0.30;;
38463;SDS011;24243;51.956;5.902;2023-04-25T08:46:18;2.55;;;0.80;;
38463;SDS011;24243;51.956;5.902;2023-04-25T08:48:45;2.20;;;0.60;;
38463;SDS011;24243;51.956;5.902;2023-04-25T08:51:21;2.33;;;0.57;;
38463;SDS011;24243;51.956;5.902;2023-04-25T08:53:50;1.73;;;0.40;;
38463;SDS011;24243;51.956;5.902;2023-04-25T08:56:17;2.10;;;0.45;;
38463;SDS011;24243;51.956;5.902;2023-04-25T08:58:45;2.58;;;0.73;;
38463;SDS011;24243;51.956;5.902;2023-04-25T09:01:13;2.55;;;0.50;;
38463;SDS011;24243;51.956;5.902;2023-04-25T09:03:39;2.53;;;0.60;;
38463;SDS011;24243;51.956;5.902;2023-04-25T09:06:05;3.03;;;0.43;;
38463;SDS011;24243;51.956;5.902;2023-04-25T09:08:31;2.05;;;0.50;;
38463;SDS011;24243;51.956;5.902;2023-04-25T09:10:57;1.88;;;0.50;;
38463;SDS011;24243;51.956;5.902;2023-04-25T09:13:26;1.92;;;0.60;;
38463;SDS011;24243;51.956;5.902;2023-04-25T09:15:54;1.88;;;0.50;;
38463;SDS011;24243;51.956;5.902;2023-04-25T09:18:24;2.67;;;0.30;;
38463;SDS011;24243;51.956;5.902;2023-04-25T09:20:54;2.72;;;1.05;;
38463;SDS011;24243;51.956;5.902;2023-04-25T09:23:21;4.97;;;0.82;;
38463;SDS011;24243;51.956;5.902;2023-04-25T09:25:51;1.30;;;0.30;;
38463;SDS011;24243;51.956;5.902;2023-04-25T09:28:25;1.85;;;0.35;;
38463;SDS011;24243;51.956;5.902;2023-04-25T09:30:54;1.75;;;0.65;;
38463;SDS011;24243;51.956;5.902;2023-04-25T09:33:26;2.30;;;0.50;;
38463;SDS011;24243;51.956;5.902;2023-04-25T09:35:56;1.42;;;0.50;;
38463;SDS011;24243;51.956;5.902;2023-04-25T09:38:31;1.67;;;0.45;;
38463;SDS011;24243;51.956;5.902;2023-04-25T09:40:58;2.10;;;0.30;;
38463;SDS011;24243;51.956;5.902;2023-04-25T09:43:25;2.88;;;0.40;;
38463;SDS011;24243;51.956;5.902;2023-04-25T09:45:53;1.17;;;0.40;;
38463;SDS011;24243;51.956;5.902;2023-04-25T09:48:22;2.15;;;0.60;;
38463;SDS011;24243;51.956;5.902;2023-04-25T09:53:45;2.30;;;0.40;;
38463;SDS011;24243;51.956;5.902;2023-04-25T09:56:12;0.98;;;0.30;;
38463;SDS011;24243;51.956;5.902;2023-04-25T09:58:38;1.70;;;0.45;;
38463;SDS011;24243;51.956;5.902;2023-04-25T10:01:06;1.08;;;0.43;;
38463;SDS011;24243;51.956;5.902;2023-04-25T10:03:33;0.90;;;0.20;;
38463;SDS011;24243;51.956;5.902;2023-04-25T10:06:01;3.00;;;0.80;;
38463;SDS011;24243;51.956;5.902;2023-04-25T10:08:31;1.95;;;0.40;;
38463;SDS011;24243;51.956;5.902;2023-04-25T10:11:01;1.85;;;0.32;;
38463;SDS011;24243;51.956;5.902;2023-04-25T10:13:29;2.15;;;0.57;;
38463;SDS011;24243;51.956;5.902;2023-04-25T10:15:59;1.08;;;0.40;;
38463;SDS011;24243;51.956;5.902;2023-04-25T10:18:26;1.85;;;0.45;;
38463;SDS011;24243;51.956;5.902;2023-04-25T10:20:57;2.08;;;0.50;;
38463;SDS011;24243;51.956;5.902;2023-04-25T10:23:24;1.75;;;0.25;;
38463;SDS011;24243;51.956;5.902;2023-04-25T10:25:51;1.55;;;0.52;;
38463;SDS011;24243;51.956;5.902;2023-04-25T10:28:18;1.80;;;0.47;;
38463;SDS011;24243;51.956;5.902;2023-04-25T10:30:57;1.40;;;0.38;;
38463;SDS011;24243;51.956;5.902;2023-04-25T10:36:02;1.58;;;0.28;;
38463;SDS011;24243;51.956;5.902;2023-04-25T10:38:34;1.85;;;0.45;;
38463;SDS011;24243;51.956;5.902;2023-04-25T10:41:06;0.98;;;0.30;;
38463;SDS011;24243;51.956;5.902;2023-04-25T10:43:37;1.25;;;0.30;;
38463;SDS011;24243;51.956;5.902;2023-04-25T10:46:23;1.65;;;0.50;;
38463;SDS011;24243;51.956;5.902;2023-04-25T10:48:51;1.35;;;0.45;;
38463;SDS011;24243;51.956;5.902;2023-04-25T10:56:20;2.83;;;0.40;;
38463;SDS011;24243;51.956;5.902;2023-04-25T10:58:46;1.38;;;0.40;;
38463;SDS011;24243;51.956;5.902;2023-04-25T11:01:13;1.95;;;0.30;;
38463;SDS011;24243;51.956;5.902;2023-04-25T11:03:40;0.98;;;0.30;;
38463;SDS011;24243;51.956;5.902;2023-04-25T11:06:22;1.65;;;0.40;;
38463;SDS011;24243;51.956;5.902;2023-04-25T11:08:53;2.35;;;0.30;;
38463;SDS011;24243;51.956;5.902;2023-04-25T11:11:19;1.40;;;0.30;;
38463;SDS011;24243;51.956;5.902;2023-04-25T11:13:48;1.02;;;0.25;;
38463;SDS011;24243;51.956;5.902;2023-04-25T11:16:15;1.00;;;0.40;;
38463;SDS011;24243;51.956;5.902;2023-04-25T11:18:42;1.58;;;0.60;;
38463;SDS011;24243;51.956;5.902;2023-04-25T11:21:09;1.00;;;0.45;;
38463;SDS011;24243;51.956;5.902;2023-04-25T11:23:35;1.27;;;0.55;;
38463;SDS011;24243;51.956;5.902;2023-04-25T11:26:01;1.77;;;0.30;;
38463;SDS011;24243;51.956;5.902;2023-04-25T11:28:28;1.02;;;0.30;;
38463;SDS011;24243;51.956;5.902;2023-04-25T11:30:53;1.50;;;0.35;;
38463;SDS011;24243;51.956;5.902;2023-04-25T11:33:23;1.05;;;0.45;;
38463;SDS011;24243;51.956;5.902;2023-04-25T11:35:50;1.98;;;0.32;;
38463;SDS011;24243;51.956;5.902;2023-04-25T11:38:17;1.37;;;0.40;;
38463;SDS011;24243;51.956;5.902;2023-04-25T11:40:43;1.70;;;0.20;;
38463;SDS011;24243;51.956;5.902;2023-04-25T11:43:09;2.15;;;0.20;;
38463;SDS011;24243;51.956;5.902;2023-04-25T11:45:36;2.15;;;0.30;;
38463;SDS011;24243;51.956;5.902;2023-04-25T11:48:02;2.33;;;0.40;;
38463;SDS011;24243;51.956;5.902;2023-04-25T11:50:28;4.75;;;1.90;;
38463;SDS011;24243;51.956;5.902;2023-04-25T11:52:55;6.68;;;3.92;;
38463;SDS011;24243;51.956;5.902;2023-04-25T11:55:21;9.20;;;5.43;;
38463;SDS011;24243;51.956;5.902;2023-04-25T11:57:48;10.52;;;6.28;;
38463;SDS011;24243;51.956;5.902;2023-04-25T12:00:18;10.13;;;5.25;;
38463;SDS011;24243;51.956;5.902;2023-04-25T12:02:46;12.88;;;6.95;;
38463;SDS011;24243;51.956;5.902;2023-04-25T12:05:15;10.60;;;7.00;;
38463;SDS011;24243;51.956;5.902;2023-04-25T12:07:42;12.38;;;6.35;;
38463;SDS011;24243;51.956;5.902;2023-04-25T12:10:08;9.75;;;5.57;;
38463;SDS011;24243;51.956;5.902;2023-04-25T12:12:43;6.82;;;5.13;;
38463;SDS011;24243;51.956;5.902;2023-04-25T12:17:50;9.80;;;5.50;;
38463;SDS011;24243;51.956;5.902;2023-04-25T12:20:35;7.97;;;5.05;;
38463;SDS011;24243;51.956;5.902;2023-04-25T12:23:00;6.47;;;4.30;;
38463;SDS011;24243;51.956;5.902;2023-04-25T12:25:42;7.22;;;3.72;;
38463;SDS011;24243;51.956;5.902;2023-04-25T12:28:19;7.38;;;4.15;;
38463;SDS011;24243;51.956;5.902;2023-04-25T12:30:58;6.97;;;3.63;;
38463;SDS011;24243;51.956;5.902;2023-04-25T12:33:27;7.13;;;3.47;;
38463;SDS011;24243;51.956;5.902;2023-04-25T12:35:55;5.78;;;2.88;;
38463;SDS011;24243;51.956;5.902;2023-04-25T12:38:28;4.80;;;2.90;;
38463;SDS011;24243;51.956;5.902;2023-04-25T12:40:56;6.35;;;2.95;;
38463;SDS011;24243;51.956;5.902;2023-04-25T12:43:23;5.25;;;2.97;;
38463;SDS011;24243;51.956;5.902;2023-04-25T12:45:52;6.45;;;2.95;;
38463;SDS011;24243;51.956;5.902;2023-04-25T12:48:19;5.22;;;2.40;;
38463;SDS011;24243;51.956;5.902;2023-04-25T12:50:46;5.53;;;2.42;;
38463;SDS011;24243;51.956;5.902;2023-04-25T12:53:14;4.23;;;2.50;;
38463;SDS011;24243;51.956;5.902;2023-04-25T12:55:44;4.38;;;2.20;;
38463;SDS011;24243;51.956;5.902;2023-04-25T12:58:16;4.70;;;2.30;;
38463;SDS011;24243;51.956;5.902;2023-04-25T13:00:43;4.60;;;2.55;;
38463;SDS011;24243;51.956;5.902;2023-04-25T13:03:09;3.63;;;2.17;;
38463;SDS011;24243;51.956;5.902;2023-04-25T13:05:36;4.97;;;2.00;;
38463;SDS011;24243;51.956;5.902;2023-04-25T13:08:02;3.47;;;1.80;;
38463;SDS011;24243;51.956;5.902;2023-04-25T13:10:29;5.90;;;2.15;;
38463;SDS011;24243;51.956;5.902;2023-04-25T13:12:54;4.43;;;2.10;;
38463;SDS011;24243;51.956;5.902;2023-04-25T13:15:20;5.35;;;1.92;;
38463;SDS011;24243;51.956;5.902;2023-04-25T13:17:46;3.83;;;1.70;;
38463;SDS011;24243;51.956;5.902;2023-04-25T13:20:12;4.80;;;2.05;;
38463;SDS011;24243;51.956;5.902;2023-04-25T13:22:40;3.90;;;1.48;;
38463;SDS011;24243;51.956;5.902;2023-04-25T13:25:06;3.53;;;1.42;;
38463;SDS011;24243;51.956;5.902;2023-04-25T13:27:33;3.88;;;1.42;;
38463;SDS011;24243;51.956;5.902;2023-04-25T13:30:00;3.03;;;1.17;;
38463;SDS011;24243;51.956;5.902;2023-04-25T13:32:29;3.03;;;1.65;;
38463;SDS011;24243;51.956;5.902;2023-04-25T13:34:55;4.75;;;1.45;;
38463;SDS011;24243;51.956;5.902;2023-04-25T13:37:21;2.72;;;1.10;;
38463;SDS011;24243;51.956;5.902;2023-04-25T13:39:49;1.92;;;0.80;;
38463;SDS011;24243;51.956;5.902;2023-04-25T13:42:15;1.98;;;0.77;;
38463;SDS011;24243;51.956;5.902;2023-04-25T13:44:41;2.97;;;1.15;;
38463;SDS011;24243;51.956;5.902;2023-04-25T13:47:06;1.45;;;0.63;;
38463;SDS011;24243;51.956;5.902;2023-04-25T13:49:32;1.48;;;0.50;;
38463;SDS011;24243;51.956;5.902;2023-04-25T13:51:58;1.23;;;0.50;;
38463;SDS011;24243;51.956;5.902;2023-04-25T13:54:23;1.67;;;0.40;;
38463;SDS011;24243;51.956;5.902;2023-04-25T13:56:49;1.33;;;0.47;;
38463;SDS011;24243;51.956;5.902;2023-04-25T13:59:15;1.08;;;0.50;;
38463;SDS011;24243;51.956;5.902;2023-04-25T14:01:41;1.98;;;0.40;;
38463;SDS011;24243;51.956;5.902;2023-04-25T14:04:06;1.95;;;0.38;;
38463;SDS011;24243;51.956;5.902;2023-04-25T14:06:32;0.65;;;0.15;;
38463;SDS011;24243;51.956;5.902;2023-04-25T14:08:58;2.38;;;0.68;;
38463;SDS011;24243;51.956;5.902;2023-04-25T14:11:26;2.20;;;1.25;;
38463;SDS011;24243;51.956;5.902;2023-04-25T14:13:51;3.22;;;1.60;;
38463;SDS011;24243;51.956;5.902;2023-04-25T14:16:17;1.90;;;1.42;;
38463;SDS011;24243;51.956;5.902;2023-04-25T14:18:43;2.00;;;1.00;;
38463;SDS011;24243;51.956;5.902;2023-04-25T14:21:09;2.28;;;0.90;;
38463;SDS011;24243;51.956;5.902;2023-04-25T14:23:35;2.70;;;0.80;;
38463;SDS011;24243;51.956;5.902;2023-04-25T14:26:00;1.25;;;0.50;;
38463;SDS011;24243;51.956;5.902;2023-04-25T14:28:27;1.17;;;0.40;;
38463;SDS011;24243;51.956;5.902;2023-04-25T14:30:52;2.45;;;0.45;;
38463;SDS011;24243;51.956;5.902;2023-04-25T14:33:18;2.72;;;0.68;;
38463;SDS011;24243;51.956;5.902;2023-04-25T14:35:44;2.03;;;0.82;;
38463;SDS011;24243;51.956;5.902;2023-04-25T14:38:09;1.83;;;0.40;;
38463;SDS011;24243;51.956;5.902;2023-04-25T14:40:35;0.80;;;0.30;;
38463;SDS011;24243;51.956;5.902;2023-04-25T14:43:02;1.95;;;0.40;;
38463;SDS011;24243;51.956;5.902;2023-04-25T14:45:28;1.33;;;0.40;;
38463;SDS011;24243;51.956;5.902;2023-04-25T14:47:53;1.80;;;0.40;;
38463;SDS011;24243;51.956;5.902;2023-04-25T14:50:20;1.48;;;0.25;;
38463;SDS011;24243;51.956;5.902;2023-04-25T14:52:45;0.75;;;0.40;;
38463;SDS011;24243;51.956;5.902;2023-04-25T14:55:11;3.03;;;0.50;;
38463;SDS011;24243;51.956;5.902;2023-04-25T14:57:37;1.52;;;0.40;;
38463;SDS011;24243;51.956;5.902;2023-04-25T15:00:04;3.13;;;0.93;;